Latest Weather Observations for Adelaide Airport

IDS60801

Issued at 3:12 pm CDT Monday 18 November 2019 (issued every 10 minutes, with the page automatically refreshed every 10 minutes)

About weather observations | Map of weather stations | Latest weather observations for SA | Other Formats
Station Details ID: 023034 Name: ADELAIDE AIRPORT Lat: -34.95 Lon: 138.52 Height: 2.0 m
Data from the previous 72 hours. | See also: Recent months at Adelaide Airport
Date/Time
CDT
Temp
°C
App
Temp
°C
Dew
Point
°C
Rel
Hum
%
Delta-T
°C
Wind Press
QNH
hPa
Press
MSL
hPa
Rain since
9am
mm
Dir  Spd
km/h
Gust
km/h
Spd
kts
Gust
kts
18/03:00pm 30.0 24.0 -3.2 11 15.0 WNW 19 28 10 15 1014.0 1014.0 0.0
18/02:30pm 30.8 24.9 -1.9 12 15.2 NW 19 26 10 14 1014.4 1014.4 0.0
18/02:00pm 30.4 24.3 -2.6 11 15.1 NW 20 30 11 16 1014.7 1014.7 0.0
18/01:30pm 30.4 23.9 -2.1 12 15.0 NW 22 32 12 17 1015.1 1015.1 0.0
18/01:00pm 29.8 23.4 -1.4 13 14.5 NNW 22 32 12 17 1015.6 1015.6 0.0
18/12:30pm 28.8 22.5 -1.2 14 13.9 NNW 22 28 12 15 1016.0 1016.0 0.0
18/12:00pm 27.4 20.3 -1.2 15 13.1 NNW 26 32 14 17 1016.3 1016.3 0.0
18/11:30am 27.3 21.9 1.5 18 12.4 NNW 19 32 10 17 1016.6 1016.6 0.0
18/11:00am 26.8 21.6 -0.1 17 12.5 N 17 26 9 14 1016.6 1016.6 0.0
18/10:30am 25.7 20.8 1.8 21 11.4 N 17 24 9 13 1016.9 1016.9 0.0
18/10:00am 24.3 19.4 2.3 23 10.5 N 17 24 9 13 1017.3 1017.3 0.0
18/09:30am 22.9 18.0 2.0 25 9.8 NNE 17 24 9 13 1017.7 1017.7 0.0
18/09:00am 21.4 16.3 3.0 29 8.7 NNE 19 26 10 14 1017.8 1017.8 0.0
18/08:30am 20.0 13.9 2.9 32 8.0 NNE 24 28 13 15 1018.0 1018.0 0.0
18/08:00am 18.8 14.5 3.4 36 7.2 NNE 15 20 8 11 1017.9 1017.9 0.0
18/07:30am 17.3 13.6 4.6 43 6.0 NE 13 17 7 9 1017.7 1017.7 0.0
18/07:00am 14.8 11.4 5.8 55 4.3 NE 13 15 7 8 1017.6 1017.6 0.0
18/06:30am 12.9 8.9 5.1 59 3.6 NE 15 17 8 9 1017.5 1017.5 0.0
18/06:00am 11.4 7.6 6.0 69 2.5 NE 15 17 8 9 1017.5 1017.5 0.0
18/05:30am 12.9 8.4 5.9 62 3.3 NE 19 20 10 11 1017.1 1017.1 0.0
18/05:00am 10.4 7.6 7.0 79 1.6 NE 11 13 6 7 1017.6 1017.6 0.0
18/04:30am 10.7 8.8 7.6 81 1.5 NE 7 9 4 5 1018.3 1018.3 0.0
18/04:00am 10.8 8.9 7.5 80 1.6 NE 7 9 4 5 1018.5 1018.5 0.0
18/03:30am 12.8 11.0 7.9 72 2.4 NNE 7 9 4 5 1018.7 1018.7 0.0
18/03:00am 11.7 9.9 8.0 78 1.8 NE 7 9 4 5 1018.8 1018.8 0.0
18/02:30am 11.4 8.8 7.7 78 1.8 ENE 11 13 6 7 1019.2 1019.2 0.0
18/02:00am 11.5 9.3 8.0 79 1.7 ENE 9 9 5 5 1019.8 1019.8 0.0
18/01:30am 12.0 11.7 8.6 80 1.7 CALM 0 0 0 0 1020.3 1020.3 0.0
18/01:00am 12.2 10.6 8.8 80 1.7 WSW 7 9 4 5 1020.5 1020.5 0.0
18/12:30am 12.9 12.6 8.5 74 2.2 CALM 0 0 0 0 1020.5 1020.5 0.0
18/12:00am 13.4 11.8 8.6 73 2.4 ENE 7 9 4 5 1020.4 1020.4 0.0
 
Date/Time
CDT
Temp
°C
App
Temp
°C
Dew
Point
°C
Rel
Hum
%
Delta-T
°C
Wind Press
QNH
hPa
Press
MSL
hPa
Rain since
9am
mm
Dir  Spd
km/h
Gust
km/h
Spd
kts
Gust
kts
17/11:30pm 13.4 11.4 8.8 74 2.3 E 9 9 5 5 1020.5 1020.5 0.0
17/11:00pm 14.1 12.5 8.7 70 2.7 NE 7 9 4 5 1020.5 1020.5 0.0
17/10:30pm 14.9 13.4 8.3 64 3.3 E 6 7 3 4 1020.8 1020.8 0.0
17/10:00pm 15.1 13.6 8.3 64 3.4 SSE 6 7 3 4 1020.9 1020.9 0.0
17/09:30pm 15.6 13.9 8.2 61 3.7 SSW 7 9 4 5 1021.0 1021.0 0.0
17/09:00pm 16.2 14.0 9.4 64 3.5 SSW 11 13 6 7 1021.0 1021.0 0.0
17/08:30pm 16.7 14.4 10.3 66 3.4 SW 13 17 7 9 1020.9 1020.9 0.0
17/08:00pm 16.8 13.4 10.6 67 3.3 SSW 19 26 10 14 1020.9 1020.9 0.0
17/07:30pm 16.9 13.2 10.1 64 3.6 SSW 20 28 11 15 1020.7 1020.7 0.0
17/07:00pm 17.3 13.0 9.2 59 4.2 SSW 22 30 12 16 1020.7 1020.7 0.0
17/06:30pm 17.3 13.2 8.5 56 4.5 SSW 20 26 11 14 1020.8 1020.8 0.0
17/06:00pm 17.4 12.5 8.4 55 4.6 SW 24 32 13 17 1020.8 1020.8 0.0
17/05:30pm 17.7 13.1 8.3 54 4.8 SSW 22 28 12 15 1020.8 1020.8 0.0
17/05:00pm 18.0 14.1 8.5 53 4.9 SW 19 28 10 15 1020.6 1020.6 0.0
17/04:30pm 18.3 14.3 8.4 52 5.1 SW 19 26 10 14 1020.6 1020.6 0.0
17/04:00pm 17.9 13.3 8.1 52 5.0 WSW 22 32 12 17 1021.0 1021.0 0.0
17/03:30pm 17.3 11.9 8.0 54 4.7 WSW 26 32 14 17 1021.6 1021.6 0.0
17/03:00pm 17.3 11.4 7.5 52 4.9 SW 28 33 15 18 1022.0 1022.0 0.0
17/02:30pm 17.3 11.4 7.3 52 5.0 SW 28 33 15 18 1022.4 1022.4 0.0
17/02:00pm 17.5 11.4 6.5 48 5.4 SW 28 35 15 19 1022.6 1022.6 0.0
17/01:30pm 16.9 11.1 6.2 49 5.2 SW 26 32 14 17 1022.8 1022.8 0.0
17/01:00pm 17.4 11.3 6.4 48 5.4 SW 28 33 15 18 1023.3 1023.3 0.0
17/12:30pm 17.1 10.9 6.2 48 5.3 WSW 28 37 15 20 1023.4 1023.4 0.0
17/12:00pm 16.9 10.5 5.4 46 5.5 SW 28 33 15 18 1023.9 1023.9 0.0
17/11:30am 17.5 13.4 6.0 46 5.6 S 17 28 9 15 1024.3 1024.3 0.0
17/11:00am 17.1 12.9 5.7 47 5.5 SSW 17 26 9 14 1024.3 1024.3 0.0
17/10:30am 16.5 14.1 11.3 71 2.8 S 15 26 8 14 1024.5 1024.5 0.0
17/10:00am 16.3 13.5 8.6 60 3.9 SSE 13 19 7 10 1024.7 1024.7 0.0
17/09:30am 15.7 12.2 5.6 51 4.8 SE 13 22 7 12 1024.3 1024.3 0.0
17/09:00am 15.9 12.2 4.5 46 5.3 SSE 13 19 7 10 1024.6 1024.6 0.0
17/08:30am 14.9 11.1 4.0 48 5.0 S 13 19 7 10 1024.3 1024.3 0.0
17/08:00am 13.6 11.1 4.7 55 4.1 SSE 7 11 4 6 1024.1 1024.1 0.0
17/07:30am 11.8 10.9 6.2 68 2.6 CALM 0 0 0 0 1024.3 1024.3 0.0
17/07:00am 10.6 9.8 6.3 75 2.0 CALM 0 0 0 0 1023.7 1023.7 0.0
17/06:30am 8.7 7.7 5.8 82 1.3 CALM 0 0 0 0 1023.6 1023.6 0.0
17/06:00am 8.6 6.8 5.2 79 1.5 NE 4 7 2 4 1023.2 1023.2 0.0
17/05:30am 9.2 7.0 5.4 77 1.7 E 6 7 3 4 1023.0 1023.0 0.0
17/05:00am 9.8 8.8 5.4 74 2.0 CALM 0 4 0 2 1022.9 1022.9 0.0
17/04:30am 10.4 8.0 5.3 70 2.3 E 7 9 4 5 1022.8 1022.8 0.0
17/04:00am 10.8 8.5 5.6 70 2.4 E 7 7 4 4 1023.0 1023.0 0.0
17/03:30am 10.3 8.2 5.7 73 2.1 E 6 7 3 4 1023.0 1023.0 0.0
17/03:00am 10.2 7.8 5.3 71 2.2 E 7 7 4 4 1023.0 1023.0 0.0
17/02:30am 10.9 8.5 5.4 69 2.5 SE 7 9 4 5 1023.3 1023.3 0.0
17/02:00am 10.9 8.5 5.4 69 2.5 SSE 7 9 4 5 1023.5 1023.5 0.0
17/01:30am 10.7 8.2 4.9 67 2.6 S 7 9 4 5 1023.4 1023.4 0.0
17/01:00am 10.7 7.4 4.7 66 2.7 S 11 19 6 10 1023.5 1023.5 0.0
17/12:30am 10.7 7.1 5.2 69 2.5 SSE 13 17 7 9 1024.0 1024.0 0.0
17/12:00am 10.6 7.1 5.3 70 2.4 SSE 13 15 7 8 1024.2 1024.2 0.0
 
Date/Time
CDT
Temp
°C
App
Temp
°C
Dew
Point
°C
Rel
Hum
%
Delta-T
°C
Wind Press
QNH
hPa
Press
MSL
hPa
Rain since
9am
mm
Dir  Spd
km/h
Gust
km/h
Spd
kts
Gust
kts
16/11:30pm 11.1 7.5 5.2 67 2.7 S 13 15 7 8 1023.9 1023.9 0.0
16/11:00pm 11.3 7.7 5.1 65 2.8 S 13 19 7 10 1023.7 1023.7 0.0
16/10:30pm 12.0 8.0 5.0 62 3.2 SSE 15 19 8 10 1023.5 1023.5 0.0
16/10:00pm 12.4 8.0 5.0 60 3.4 SSE 17 20 9 11 1023.2 1023.2 0.0
16/09:30pm 12.8 7.5 5.0 59 3.6 SSE 22 30 12 16 1022.8 1022.8 0.0
16/09:00pm 13.7 8.9 4.8 55 4.1 S 19 26 10 14 1022.7 1022.7 0.0
16/08:30pm 14.4 8.7 4.7 52 4.5 SSE 24 32 13 17 1022.0 1022.0 0.0
16/08:00pm 15.2 10.6 6.3 55 4.3 SSW 20 30 11 16 1022.2 1022.2 0.0
16/07:30pm 15.6 10.2 6.3 54 4.5 SSW 24 32 13 17 1021.4 1021.4 0.0
16/07:00pm 15.9 9.3 6.2 52 4.7 SSW 30 39 16 21 1020.8 1020.8 0.0
16/06:30pm 16.6 9.6 6.1 50 5.1 SW 32 44 17 24 1020.3 1020.3 0.0
16/06:00pm 16.4 8.4 5.8 49 5.1 SSW 37 50 20 27 1020.5 1020.5 0.0
16/05:30pm 17.8 9.5 6.2 46 5.7 SW 39 48 21 26 1020.8 1020.8 0.0
16/05:00pm 17.4 10.1 7.2 51 5.1 SW 35 48 19 26 1020.9 1020.9 0.0
16/04:30pm 17.5 9.8 7.0 50 5.2 SW 37 50 20 27 1020.8 1020.8 0.0
16/04:00pm 18.0 10.3 5.4 43 6.1 SW 35 46 19 25 1020.8 1020.8 0.0
16/03:30pm 17.8 10.2 5.9 45 5.8 SW 35 44 19 24 1021.3 1021.3 0.0
16/03:00pm 17.8 10.5 5.3 43 6.0 SW 33 41 18 22 1021.4 1021.4 0.0
16/02:30pm 17.3 10.1 5.7 46 5.6 SW 33 43 18 23 1021.6 1021.6 0.0
16/02:00pm 17.4 10.8 6.1 47 5.5 SW 30 39 16 21 1021.8 1021.8 0.0
16/01:30pm 16.8 9.7 5.3 46 5.5 SW 32 41 17 22 1021.9 1021.9 0.0
16/01:00pm 16.6 9.7 4.7 45 5.6 WSW 30 39 16 21 1021.8 1021.8 0.0
16/12:30pm 16.5 9.5 4.3 44 5.7 SW 30 37 16 20 1021.9 1021.9 0.0
16/12:00pm 16.6 10.4 4.4 44 5.7 SW 26 33 14 18 1021.8 1021.8 0.0
16/11:30am 16.4 10.2 4.1 44 5.7 SW 26 33 14 18 1021.9 1021.9 0.0
16/11:00am 15.8 12.5 4.4 46 5.3 SE 11 15 6 8 1021.8 1021.8 0.0
16/10:30am 16.6 13.1 3.6 42 6.0 S 11 17 6 9 1022.1 1022.1 0.0
16/10:00am 15.9 11.2 3.4 43 5.7 SSW 17 24 9 13 1022.2 1022.2 0.0
16/09:30am 15.7 11.8 3.4 43 5.6 S 13 20 7 11 1022.3 1022.3 0.0
16/09:00am 14.3 11.2 3.4 48 4.9 E 9 19 5 10 1022.3 1022.3 0.0
16/08:30am 14.4 11.7 3.5 48 4.9 E 7 11 4 6 1021.8 1021.8 0.0
16/08:00am 13.1 10.6 4.8 57 3.8 E 7 9 4 5 1021.5 1021.5 0.0
16/07:30am 10.6 8.5 5.6 71 2.3 E 6 7 3 4 1021.5 1021.5 0.0
16/07:00am 9.1 6.8 5.6 79 1.6 ESE 7 9 4 5 1021.4 1021.4 0.0
16/06:30am 8.5 5.8 5.6 82 1.3 E 9 9 5 5 1021.0 1021.0 0.0
16/06:00am 8.0 5.3 5.5 84 1.1 ESE 9 9 5 5 1020.7 1020.7 0.0
16/05:30am 7.8 5.7 5.6 86 1.0 SE 6 7 3 4 1020.6 1020.6 0.0
16/05:00am 8.2 6.1 5.8 85 1.1 SE 6 7 3 4 1020.4 1020.4 0.0
16/04:30am 8.7 6.4 5.8 82 1.3 SE 7 7 4 4 1020.2 1020.2 0.0
16/04:00am 9.2 7.2 6.1 81 1.4 SE 6 6 3 3 1020.1 1020.1 0.0
16/03:30am 10.0 7.4 6.1 77 1.8 SSE 9 9 5 5 1020.1 1020.1 0.0
16/03:00am 10.5 8.2 5.9 73 2.1 SE 7 7 4 4 1020.1 1020.1 0.0
16/02:30am 10.6 8.3 5.6 71 2.3 SE 7 9 4 5 1020.4 1020.4 0.0
16/02:00am 11.1 8.4 5.7 69 2.5 SSE 9 13 5 7 1020.4 1020.4 0.0
16/01:30am 11.7 8.4 6.6 71 2.4 SSE 13 15 7 8 1020.5 1020.5 0.0
16/01:00am 11.8 8.9 6.7 71 2.4 SSE 11 15 6 8 1020.8 1020.8 0.0
16/12:30am 12.1 8.9 6.9 70 2.5 SSE 13 17 7 9 1021.0 1021.0 0.0
16/12:00am 12.7 9.5 6.8 67 2.8 S 13 19 7 10 1021.1 1021.1 0.0
 
Date/Time
CDT
Temp
°C
App
Temp
°C
Dew
Point
°C
Rel
Hum
%
Delta-T
°C
Wind Press
QNH
hPa
Press
MSL
hPa
Rain since
9am
mm
Dir  Spd
km/h
Gust
km/h
Spd
kts
Gust
kts
15/11:30pm 13.1 9.1 6.8 65 3.0 S 17 22 9 12 1020.9 1020.9 0.0
15/11:00pm 13.6 10.2 7.5 66 3.0 S 15 19 8 10 1021.1 1021.1 0.0
15/10:30pm 14.3 10.9 7.6 64 3.3 S 15 19 8 10 1021.0 1021.0 0.0
15/10:00pm 14.6 11.7 8.0 64 3.3 S 13 17 7 9 1020.7 1020.7 0.0
15/09:30pm 14.8 10.7 8.0 64 3.4 S 19 26 10 14 1020.2 1020.2 0.0
15/09:00pm 15.1 10.9 8.1 63 3.5 S 20 30 11 16 1019.8 1019.8 0.0
15/08:30pm 15.8 11.6 9.6 66 3.2 SSW 22 28 12 15 1019.4 1019.4 0.0
15/08:00pm 16.2 12.6 10.5 69 3.0 SSW 20 30 11 16 1019.2 1019.2 0.0
15/07:30pm 16.0 11.8 11.1 72 2.6 SW 24 33 13 18 1018.9 1018.9 0.0
15/07:00pm 16.7 12.7 10.3 66 3.4 SW 22 30 12 16 1018.6 1018.6 0.0
15/06:30pm 16.7 12.2 10.0 64 3.5 SW 24 32 13 17 1018.4 1018.4 0.0
15/06:00pm 16.6 12.0 9.7 63 3.6 SW 24 32 13 17 1018.1 1018.1 0.0
15/05:30pm 16.8 11.4 9.5 62 3.8 SW 28 35 15 19 1017.9 1017.9 0.0
15/05:00pm 17.3 12.1 9.0 58 4.3 SW 26 30 14 16 1017.9 1017.9 0.0
15/04:30pm 17.0 12.1 8.4 57 4.4 SW 24 30 13 16 1017.6 1017.6 0.0
15/04:00pm 17.3 12.2 7.8 53 4.8 SW 24 30 13 16 1017.7 1017.7 0.0
15/03:30pm 17.2 11.7 7.7 53 4.8 SW 26 33 14 18 1017.8 1017.8 0.0

Other formats

Comma delimited format used in spreadsheet applications
http://www.bom.gov.au/fwo/IDS60801/IDS60801.94672.axf

JavaScript Object Notation format (JSON) in row-major order
http://www.bom.gov.au/fwo/IDS60801/IDS60801.94672.json

Data quality

Most of these data are generated automatically and are frequently updated. Quality checks on data are not normally performed. It is possible for incorrect values to appear. Refer to information at About Latest Weather Observations and please check the disclaimer before using these data.